This is the latest recevied weather packets stored in our database for station/object WB6AHC-1. If no packets are shown the sender has not sent any weather packets the latest 10 day(s).
| Time | Temp. | Humidity | Pressure | Rain* | Wind** | Luminosity | Snow |
|---|---|---|---|---|---|---|---|
| 1777826137 | 16.11° C | 71% | - | 0 mm | 0 m/s | - | - |
| 1777825293 | 15.56° C | 75% | - | 0 mm | 0 m/s | - | - |
| 1777824446 | 15.56° C | 78% | - | 0 mm | 0 m/s | - | - |
| 1777823602 | 15° C | 79% | - | 0 mm | 0 m/s | - | - |
| 1777822758 | 14.44° C | 80% | - | 0 mm | 0 m/s | - | - |
| 1777821911 | 14.44° C | 81% | - | 0 mm | 0 m/s | - | - |
| 1777821067 | 13.89° C | 83% | - | 0 mm | 0 m/s | - | - |
| 1777820223 | 13.89° C | 84% | - | 0 mm | 0 m/s | - | - |
| 1777819376 | 13.33° C | 85% | - | 0 mm | 0 m/s | - | - |
| 1777818532 | 13.33° C | 85% | - | 0 mm | 0 m/s | - | - |
| 1777817687 | 13.33° C | 85% | - | 0 mm | 0 m/s | - | - |
| 1777816841 | 13.33° C | 85% | - | 0 mm | 0 m/s | - | - |
| 1777815996 | 13.33° C | 84% | - | 0 mm | 0 m/s | - | - |
| 1777815153 | 13.33° C | 84% | - | 0 mm | 0 m/s | - | - |
| 1777814304 | 12.78° C | 84% | - | 0 mm | 0 m/s | - | - |
| 1777813460 | 12.78° C | 84% | - | 0 mm | 0 m/s | - | - |
| 1777812615 | 12.78° C | 84% | - | 0 mm | 0 m/s | - | - |
| 1777811768 | 12.78° C | 84% | - | 0 mm | 0 m/s | - | - |
| 1777810924 | 12.78° C | 83% | - | 0 mm | 0 m/s | - | - |
| 1777810080 | 13.33° C | 82% | - | 0 mm | 0 m/s | - | - |
| 1777809233 | 13.89° C | 81% | - | 0 mm | 0 m/s | - | - |
| 1777808389 | 13.33° C | 81% | - | 0 mm | 0 m/s | - | - |
| 1777807545 | 13.89° C | 80% | - | 0 mm | 0 m/s | - | - |
| 1777806698 | 13.89° C | 80% | - | 0 mm | 0 m/s | - | - |
| 1777805854 | 13.89° C | 80% | - | 0 mm | 0 m/s | - | - |
* Rain latest hour (hover to see other rain measurements)
** Current wind speed in m/s (hover to see current wind gust speed)